createdAt,value
2023-08-13T00:14:43.657Z,1019.86
2023-08-13T00:43:29.247Z,1019.61
2023-08-13T01:12:16.468Z,1019.8
2023-08-13T01:40:58.751Z,1019.86
2023-08-13T02:09:33.924Z,1019.75
2023-08-13T02:38:29.919Z,1019.48
2023-08-13T03:07:34.412Z,1019.61
2023-08-13T03:36:33.945Z,1019.79
2023-08-13T04:05:26.444Z,1019.71
2023-08-13T04:34:23.029Z,1019.85
2023-08-13T05:03:16.920Z,1019.81
2023-08-13T05:32:18.409Z,1019.71
2023-08-13T06:01:17.600Z,1019.66
2023-08-13T06:30:24.167Z,1019.64
2023-08-13T06:59:24.470Z,1019.73
2023-08-13T07:28:39.649Z,1019.89
2023-08-13T07:57:26.413Z,1019.94
2023-08-13T08:26:47.196Z,1019.84
2023-08-13T08:56:23.407Z,1019.68
2023-08-13T09:25:18.097Z,1019.78
2023-08-13T09:54:20.233Z,1019.43
2023-08-13T10:23:25.775Z,1019.75
2023-08-13T10:53:08.211Z,1019.38
2023-08-13T11:22:09.117Z,1019.21
2023-08-13T11:51:21.942Z,1019.06
2023-08-13T12:19:50.958Z,1018.71
2023-08-13T12:48:53.525Z,1018.54
2023-08-13T13:17:47.300Z,1018.38
2023-08-13T13:46:46.754Z,1018
2023-08-13T14:15:50.390Z,1017.84
2023-08-13T14:44:45.473Z,1017.76
2023-08-13T15:13:49.283Z,1017.56
2023-08-13T15:42:56.348Z,1017.54
2023-08-13T16:11:58.119Z,1017.29
2023-08-13T16:40:44.286Z,1017.21
2023-08-13T17:09:54.995Z,1017.03
2023-08-13T17:38:54.610Z,1016.77
2023-08-13T18:08:16.059Z,1016.77
2023-08-13T18:36:16.985Z,1016.84
2023-08-13T19:04:37.743Z,1017.16
2023-08-13T19:33:02.997Z,1017.23
2023-08-13T20:01:23.742Z,1017.28
2023-08-13T20:29:40.770Z,1017.29
2023-08-13T20:57:58.953Z,1017.18
2023-08-13T21:26:19.974Z,1016.8
2023-08-13T21:54:36.881Z,1016.93
2023-08-13T22:22:54.218Z,1017.24
2023-08-13T22:51:20.307Z,1017.53
2023-08-13T23:19:38.620Z,1017.18
2023-08-13T23:47:57.169Z,1017.87
